createdAt,value
2023-02-23T00:02:21.455Z,8.63
2023-02-23T00:04:51.402Z,9.77
2023-02-23T00:07:21.004Z,9.17
2023-02-23T00:09:50.902Z,9.23
2023-02-23T00:12:20.785Z,9.50
2023-02-23T00:14:49.404Z,9.27
2023-02-23T00:17:19.912Z,8.53
2023-02-23T00:19:50.420Z,9.77
2023-02-23T00:22:19.469Z,9.83
2023-02-23T00:24:48.192Z,9.90
2023-02-23T00:27:20.929Z,8.23
2023-02-23T00:29:51.067Z,9.40
2023-02-23T00:32:21.063Z,8.50
2023-02-23T00:34:50.927Z,10.60
2023-02-23T00:37:20.247Z,8.63
2023-02-23T00:39:50.173Z,9.33
2023-02-23T00:42:18.897Z,9.83
2023-02-23T00:44:48.907Z,9.23
2023-02-23T00:47:17.630Z,10.63
2023-02-23T00:49:46.077Z,10.43
2023-02-23T00:52:16.182Z,9.90
2023-02-23T00:54:44.777Z,9.30
2023-02-23T00:57:13.459Z,10.47
2023-02-23T00:59:41.870Z,9.97
2023-02-23T01:02:10.904Z,11.03
2023-02-23T01:04:39.331Z,10.80
2023-02-23T01:07:08.294Z,10.93
2023-02-23T01:09:38.178Z,9.87
2023-02-23T01:12:07.901Z,10.40
2023-02-23T01:14:37.643Z,9.87
2023-02-23T01:17:07.436Z,11.50
2023-02-23T01:19:38.020Z,9.97
2023-02-23T01:22:06.910Z,10.30
2023-02-23T01:24:35.308Z,9.93
2023-02-23T01:27:08.138Z,10.77
2023-02-23T01:29:36.506Z,9.70
2023-02-23T01:32:05.583Z,9.87
2023-02-23T01:34:34.016Z,9.77
2023-02-23T01:37:03.197Z,10.63
2023-02-23T01:39:33.620Z,9.80
2023-02-23T01:42:02.345Z,10.23
2023-02-23T01:45:22.376Z,10.07
2023-02-23T01:47:56.148Z,9.87
2023-02-23T01:50:28.526Z,10.60
2023-02-23T01:52:59.337Z,12.37
2023-02-23T01:55:30.133Z,11.03
2023-02-23T01:58:11.654Z,10.90
2023-02-23T02:00:40.034Z,11.20
2023-02-23T02:03:15.731Z,10.20
2023-02-23T02:05:46.346Z,10.77
2023-02-23T02:08:18.985Z,11.50
2023-02-23T02:10:47.763Z,11.33
2023-02-23T02:13:22.845Z,11.03
2023-02-23T02:16:25.094Z,11.27
2023-02-23T02:19:18.722Z,11.50
2023-02-23T02:22:15.422Z,13.27
2023-02-23T02:25:11.839Z,10.50
2023-02-23T02:28:08.627Z,10.00
2023-02-23T02:31:02.330Z,11.67
2023-02-23T02:34:02.495Z,12.13
2023-02-23T02:37:11.890Z,10.73
2023-02-23T02:39:53.542Z,10.63
2023-02-23T02:42:30.065Z,11.77
2023-02-23T02:45:07.715Z,11.17
2023-02-23T02:47:43.415Z,10.67
2023-02-23T02:50:18.288Z,10.63
2023-02-23T02:52:55.285Z,11.53
2023-02-23T02:55:27.384Z,11.47
2023-02-23T02:57:59.876Z,11.87
2023-02-23T03:00:50.571Z,11.00
2023-02-23T03:03:51.125Z,11.70
2023-02-23T03:06:38.607Z,11.67
2023-02-23T03:09:37.879Z,10.63
2023-02-23T03:12:29.054Z,11.07
2023-02-23T03:15:27.744Z,12.83
2023-02-23T03:18:23.146Z,10.63
2023-02-23T03:21:12.521Z,11.87
2023-02-23T03:24:05.180Z,10.33
2023-02-23T03:26:59.951Z,11.73
2023-02-23T03:29:54.830Z,11.87
2023-02-23T03:32:48.519Z,10.53
2023-02-23T03:35:42.063Z,10.57
2023-02-23T03:38:35.535Z,11.27
2023-02-23T03:41:23.134Z,10.90
2023-02-23T03:44:14.938Z,9.67
2023-02-23T03:47:03.247Z,12.50
2023-02-23T03:49:53.627Z,10.53
2023-02-23T03:52:44.140Z,11.33
2023-02-23T03:55:35.979Z,10.93
2023-02-23T03:58:25.206Z,10.97
2023-02-23T04:01:17.216Z,10.23
2023-02-23T04:04:05.049Z,10.47
2023-02-23T04:06:56.443Z,11.53
2023-02-23T04:09:42.506Z,10.23
2023-02-23T04:12:33.802Z,10.70
2023-02-23T04:15:07.775Z,8.93
2023-02-23T04:17:37.803Z,11.13
2023-02-23T04:20:07.801Z,10.33
2023-02-23T04:22:36.895Z,12.27
2023-02-23T04:25:08.985Z,10.10
2023-02-23T04:27:37.810Z,10.37
2023-02-23T04:30:07.517Z,11.87
2023-02-23T04:32:38.344Z,11.83
2023-02-23T04:35:07.722Z,11.37
2023-02-23T04:37:36.550Z,11.30
2023-02-23T04:40:05.693Z,10.00
2023-02-23T04:42:34.797Z,11.40
2023-02-23T04:45:03.253Z,9.63
2023-02-23T04:47:31.962Z,10.47
2023-02-23T04:50:01.825Z,10.80
2023-02-23T04:52:31.441Z,11.03
2023-02-23T04:54:59.871Z,10.60
2023-02-23T04:57:29.012Z,9.40
2023-02-23T04:59:57.598Z,10.43
2023-02-23T05:02:26.864Z,9.90
2023-02-23T05:04:55.432Z,10.50
2023-02-23T05:07:25.790Z,10.93
2023-02-23T05:09:54.339Z,11.77
2023-02-23T05:12:23.043Z,10.20
2023-02-23T05:14:51.548Z,10.43
2023-02-23T05:17:20.254Z,11.30
2023-02-23T05:19:48.730Z,11.10
2023-02-23T05:22:17.541Z,12.13
2023-02-23T05:24:47.685Z,11.23
2023-02-23T05:27:17.736Z,12.10
2023-02-23T05:29:46.204Z,10.27
2023-02-23T05:32:15.344Z,12.77
2023-02-23T05:34:44.098Z,11.20
2023-02-23T05:37:12.878Z,11.63
2023-02-23T05:39:41.337Z,12.93
2023-02-23T05:42:11.462Z,12.33
2023-02-23T05:44:40.026Z,12.03
2023-02-23T05:47:08.935Z,12.23
2023-02-23T05:49:37.457Z,11.70
2023-02-23T05:52:06.899Z,11.80
2023-02-23T05:54:35.470Z,11.43
2023-02-23T05:57:04.371Z,10.30
2023-02-23T05:59:34.202Z,12.67
2023-02-23T06:02:05.970Z,12.10
2023-02-23T06:04:34.889Z,11.83
2023-02-23T06:07:03.618Z,13.20
2023-02-23T06:09:32.043Z,12.70
2023-02-23T06:12:00.928Z,12.17
2023-02-23T06:14:29.481Z,10.90
2023-02-23T06:17:00.379Z,11.60
2023-02-23T06:19:29.289Z,12.00
2023-02-23T06:21:57.987Z,11.70
2023-02-23T06:24:26.733Z,12.57
2023-02-23T06:26:55.651Z,12.53
2023-02-23T06:29:24.234Z,15.07
2023-02-23T06:31:53.057Z,13.27
2023-02-23T06:34:22.871Z,16.10
2023-02-23T06:36:51.680Z,17.90
2023-02-23T06:39:20.173Z,17.70
2023-02-23T06:41:48.868Z,18.33
2023-02-23T06:44:17.387Z,14.40
2023-02-23T06:46:46.133Z,12.47
2023-02-23T06:49:16.574Z,17.23
2023-02-23T06:51:47.641Z,14.63
2023-02-23T06:54:16.202Z,13.33
2023-02-23T06:56:45.388Z,19.67
2023-02-23T06:59:14.154Z,16.13
2023-02-23T07:01:44.768Z,23.57
2023-02-23T07:04:16.282Z,19.33
2023-02-23T07:06:46.984Z,16.33
2023-02-23T07:09:16.218Z,14.60
2023-02-23T07:11:45.430Z,15.20
2023-02-23T07:14:21.546Z,13.40
2023-02-23T07:16:55.168Z,14.50
2023-02-23T07:19:23.938Z,17.50
2023-02-23T07:21:54.155Z,15.43
2023-02-23T07:24:22.801Z,14.67
2023-02-23T07:26:52.152Z,14.77
2023-02-23T07:29:20.641Z,15.93
2023-02-23T07:31:50.019Z,13.70
2023-02-23T07:34:18.740Z,17.93
2023-02-23T07:36:47.571Z,15.97
2023-02-23T07:39:17.790Z,15.27
2023-02-23T07:41:46.636Z,15.03
2023-02-23T07:44:20.202Z,13.53
2023-02-23T07:46:49.560Z,16.93
2023-02-23T07:49:18.216Z,15.77
2023-02-23T07:51:47.367Z,15.37
2023-02-23T07:54:17.754Z,15.37
2023-02-23T07:56:47.084Z,17.03
2023-02-23T07:59:15.669Z,16.57
2023-02-23T08:01:44.725Z,14.27
2023-02-23T08:04:13.420Z,15.80
2023-02-23T08:06:42.316Z,14.87
2023-02-23T08:09:12.396Z,15.23
2023-02-23T08:11:42.580Z,13.33
2023-02-23T08:14:11.539Z,15.87
2023-02-23T08:16:40.375Z,15.80
2023-02-23T08:19:08.995Z,13.70
2023-02-23T08:21:37.728Z,15.47
2023-02-23T08:24:07.144Z,22.53
2023-02-23T08:26:38.165Z,45.20
2023-02-23T08:29:08.142Z,67.50
2023-02-23T08:31:37.581Z,63.67
2023-02-23T08:34:06.132Z,65.03
2023-02-23T08:36:35.100Z,60.00
2023-02-23T08:39:06.418Z,65.27
2023-02-23T08:41:35.600Z,62.27
2023-02-23T08:44:04.364Z,62.93
2023-02-23T08:46:34.813Z,61.97
2023-02-23T08:49:04.699Z,63.87
2023-02-23T08:51:34.934Z,69.43
2023-02-23T08:54:03.658Z,66.80
2023-02-23T08:56:33.367Z,70.30
2023-02-23T08:59:01.879Z,66.30
2023-02-23T09:01:30.719Z,68.40
2023-02-23T09:04:00.788Z,59.77
2023-02-23T09:06:29.806Z,63.33
2023-02-23T09:08:58.451Z,67.37
2023-02-23T09:11:27.432Z,60.47
2023-02-23T09:13:56.031Z,65.90
2023-02-23T09:16:25.037Z,71.17
2023-02-23T09:18:53.820Z,67.97
2023-02-23T09:21:25.300Z,61.30
2023-02-23T09:23:56.080Z,52.63
2023-02-23T09:26:26.241Z,47.93
2023-02-23T09:28:54.828Z,42.07
2023-02-23T09:31:25.211Z,42.30
2023-02-23T09:33:54.955Z,42.23
2023-02-23T09:36:26.555Z,42.57
2023-02-23T09:38:57.789Z,47.37
2023-02-23T09:42:01.291Z,34.20
2023-02-23T09:44:48.461Z,26.60
2023-02-23T09:47:33.381Z,28.40
2023-02-23T09:50:07.119Z,24.73
2023-02-23T09:52:42.440Z,25.37
2023-02-23T09:55:12.517Z,26.57
2023-02-23T09:57:44.640Z,27.53
2023-02-23T10:00:19.624Z,24.40
2023-02-23T10:03:25.707Z,24.73
2023-02-23T10:06:01.171Z,23.67
2023-02-23T10:08:45.587Z,24.07
2023-02-23T10:11:24.538Z,22.47
2023-02-23T10:14:05.638Z,22.77
2023-02-23T10:16:41.908Z,19.90
2023-02-23T10:19:20.470Z,26.70
2023-02-23T10:21:56.133Z,25.57
2023-02-23T10:24:30.666Z,26.43
2023-02-23T10:27:01.994Z,30.33
2023-02-23T10:29:36.052Z,27.50
2023-02-23T10:32:08.906Z,26.97
2023-02-23T10:34:38.036Z,27.87
2023-02-23T10:37:08.078Z,28.23
2023-02-23T10:39:38.454Z,27.90
2023-02-23T10:42:12.282Z,39.27
2023-02-23T10:44:43.430Z,35.10
2023-02-23T10:47:17.501Z,33.77
2023-02-23T10:49:49.653Z,30.97
2023-02-23T10:52:24.223Z,32.50
2023-02-23T10:54:54.807Z,30.63
2023-02-23T10:57:27.880Z,22.83
2023-02-23T11:00:09.914Z,21.53
2023-02-23T11:02:38.695Z,21.63
2023-02-23T11:05:08.241Z,21.77
2023-02-23T11:07:36.723Z,21.33
2023-02-23T11:10:26.075Z,20.03
2023-02-23T11:12:54.666Z,38.87
2023-02-23T11:15:46.410Z,41.57
2023-02-23T11:18:22.654Z,28.57
2023-02-23T11:20:52.390Z,20.33
2023-02-23T11:23:29.244Z,20.83
2023-02-23T11:26:02.660Z,20.47
2023-02-23T11:28:34.896Z,18.33
2023-02-23T11:31:10.101Z,17.23
2023-02-23T11:33:40.940Z,17.97
2023-02-23T11:36:28.859Z,19.43
2023-02-23T11:39:23.490Z,16.10
2023-02-23T11:42:17.956Z,19.20
2023-02-23T11:44:52.680Z,17.03
2023-02-23T11:47:23.629Z,16.07
2023-02-23T11:49:52.794Z,16.63
2023-02-23T11:52:24.833Z,17.63
2023-02-23T11:54:57.760Z,15.93
2023-02-23T11:57:30.209Z,18.47
2023-02-23T12:00:00.522Z,16.87
2023-02-23T12:02:31.618Z,16.90
2023-02-23T12:05:08.226Z,15.70
2023-02-23T12:07:41.821Z,18.03
2023-02-23T12:10:23.114Z,16.13
2023-02-23T12:12:59.453Z,16.73
2023-02-23T12:15:39.643Z,18.47
2023-02-23T12:18:18.277Z,17.63
2023-02-23T12:20:50.253Z,17.37
2023-02-23T12:23:23.325Z,16.73
2023-02-23T12:25:56.072Z,16.93
2023-02-23T12:28:33.084Z,16.77
2023-02-23T12:31:04.235Z,16.83
2023-02-23T12:33:38.605Z,17.43
2023-02-23T12:36:18.354Z,17.37
2023-02-23T12:38:54.467Z,17.00
2023-02-23T12:41:32.820Z,16.97
2023-02-23T12:44:13.389Z,17.70
2023-02-23T12:46:48.825Z,16.80
2023-02-23T12:49:25.353Z,17.13
2023-02-23T12:51:58.647Z,16.57
2023-02-23T12:54:27.760Z,16.80
2023-02-23T12:57:09.476Z,17.40
2023-02-23T13:00:04.257Z,16.50
2023-02-23T13:02:41.068Z,18.60
2023-02-23T13:05:22.605Z,19.20
2023-02-23T13:08:12.854Z,16.47
2023-02-23T13:10:52.450Z,16.07
2023-02-23T13:13:32.254Z,18.80
2023-02-23T13:16:12.780Z,18.43
2023-02-23T13:18:47.360Z,17.43
2023-02-23T13:21:24.812Z,18.47
2023-02-23T13:23:59.873Z,17.00
2023-02-23T13:26:36.687Z,17.03
2023-02-23T13:29:11.967Z,18.83
2023-02-23T13:31:43.586Z,18.90
2023-02-23T13:34:18.129Z,19.07
2023-02-23T13:36:47.194Z,19.47
2023-02-23T13:39:39.808Z,17.60
2023-02-23T13:42:21.042Z,19.90
2023-02-23T13:44:58.529Z,17.97
2023-02-23T13:47:40.925Z,19.93
2023-02-23T13:50:22.604Z,18.90
2023-02-23T13:52:58.308Z,20.43
2023-02-23T13:55:50.375Z,18.90
2023-02-23T13:58:23.669Z,18.07
2023-02-23T14:01:04.422Z,18.60
2023-02-23T14:03:41.354Z,21.03
2023-02-23T14:06:15.485Z,20.07
2023-02-23T14:08:47.249Z,19.93
2023-02-23T14:11:39.508Z,18.87
2023-02-23T14:14:08.182Z,19.90
2023-02-23T14:16:37.219Z,16.53
2023-02-23T14:19:12.001Z,19.10
2023-02-23T14:21:49.915Z,19.97
2023-02-23T14:24:22.487Z,17.77
2023-02-23T14:27:34.082Z,18.50
2023-02-23T14:30:27.093Z,24.63
2023-02-23T14:32:55.802Z,19.23
2023-02-23T14:35:45.623Z,17.33
2023-02-23T14:38:38.812Z,18.07
2023-02-23T14:41:14.711Z,17.93
2023-02-23T14:43:46.473Z,19.33
2023-02-23T14:46:26.291Z,17.73
2023-02-23T14:49:00.383Z,18.20
2023-02-23T14:51:47.988Z,17.00
2023-02-23T14:54:28.331Z,17.70
2023-02-23T14:56:59.595Z,16.17
2023-02-23T14:59:30.820Z,17.30
2023-02-23T15:02:01.726Z,22.13
2023-02-23T15:04:31.471Z,18.77
2023-02-23T15:07:02.830Z,21.20
2023-02-23T15:09:34.905Z,17.97
2023-02-23T15:12:13.160Z,18.70
2023-02-23T15:14:42.839Z,18.83
2023-02-23T15:17:18.534Z,20.67
2023-02-23T15:19:49.060Z,21.87
2023-02-23T15:22:26.139Z,19.90
2023-02-23T15:24:58.950Z,18.73
2023-02-23T15:27:32.271Z,17.63
2023-02-23T15:30:04.257Z,17.83
2023-02-23T15:32:33.151Z,18.27
2023-02-23T15:35:04.342Z,18.10
2023-02-23T15:37:40.048Z,20.17
2023-02-23T15:40:14.884Z,19.03
2023-02-23T15:42:46.175Z,17.57
2023-02-23T15:45:21.036Z,16.90
2023-02-23T15:47:53.939Z,23.27
2023-02-23T15:50:36.349Z,20.13
2023-02-23T15:53:13.423Z,21.03
2023-02-23T15:55:44.596Z,20.13
2023-02-23T15:58:19.795Z,21.53
2023-02-23T16:00:56.379Z,21.47
2023-02-23T16:03:30.718Z,19.27
2023-02-23T16:06:05.214Z,19.83
2023-02-23T16:08:37.052Z,21.33
2023-02-23T16:11:14.378Z,19.57
2023-02-23T16:13:45.022Z,22.17
2023-02-23T16:16:19.449Z,21.43
2023-02-23T16:18:54.047Z,20.10
2023-02-23T16:21:25.404Z,23.03
2023-02-23T16:23:58.369Z,22.23
2023-02-23T16:26:32.678Z,21.93
2023-02-23T16:29:04.080Z,23.43
2023-02-23T16:31:51.317Z,23.63
2023-02-23T16:34:27.147Z,21.40
2023-02-23T16:36:58.776Z,20.73
2023-02-23T16:39:30.981Z,19.73
2023-02-23T16:42:00.460Z,18.30
2023-02-23T16:44:43.008Z,19.73
2023-02-23T16:47:28.149Z,18.63
2023-02-23T16:49:58.184Z,20.43
2023-02-23T16:52:27.781Z,20.97
2023-02-23T16:54:58.281Z,19.70
2023-02-23T16:57:29.609Z,20.30
2023-02-23T16:59:58.683Z,20.93
2023-02-23T17:02:27.330Z,22.07
2023-02-23T17:04:58.961Z,29.40
2023-02-23T17:07:27.441Z,27.83
2023-02-23T17:09:58.914Z,25.33
2023-02-23T17:12:27.484Z,26.67
2023-02-23T17:14:56.416Z,23.50
2023-02-23T17:17:24.869Z,22.37
2023-02-23T17:19:53.782Z,26.17
2023-02-23T17:22:22.195Z,21.60
2023-02-23T17:24:50.997Z,23.83
2023-02-23T17:27:20.827Z,23.57
2023-02-23T17:29:49.525Z,22.33
2023-02-23T17:32:18.153Z,23.83
2023-02-23T17:34:50.151Z,24.93
2023-02-23T17:37:20.139Z,24.60
2023-02-23T17:39:49.634Z,25.63
2023-02-23T17:42:18.323Z,26.53
2023-02-23T17:44:48.368Z,24.33
2023-02-23T17:47:16.835Z,26.47
2023-02-23T17:49:45.523Z,25.83
2023-02-23T17:52:13.991Z,26.00
2023-02-23T17:54:42.751Z,26.50
2023-02-23T17:57:11.394Z,26.40
2023-02-23T17:59:40.154Z,29.80
2023-02-23T18:02:14.761Z,29.10
2023-02-23T18:04:43.979Z,26.70
2023-02-23T18:07:12.552Z,25.80
2023-02-23T18:09:41.383Z,24.87
2023-02-23T18:12:10.673Z,24.90
2023-02-23T18:14:39.443Z,24.80
2023-02-23T18:17:09.426Z,26.43
2023-02-23T18:19:38.274Z,26.03
2023-02-23T18:22:06.818Z,25.57
2023-02-23T18:24:36.376Z,26.20
2023-02-23T18:27:05.574Z,26.13
2023-02-23T18:29:36.238Z,27.37
2023-02-23T18:32:06.627Z,28.13
2023-02-23T18:34:37.566Z,28.03
2023-02-23T18:37:09.837Z,26.87
2023-02-23T18:39:38.867Z,29.27
2023-02-23T18:42:07.591Z,30.80
2023-02-23T18:44:36.732Z,29.70
2023-02-23T18:47:05.318Z,32.87
2023-02-23T18:49:34.101Z,33.27
2023-02-23T18:52:05.417Z,34.20
2023-02-23T18:54:34.302Z,32.47
2023-02-23T18:57:03.277Z,33.60
2023-02-23T18:59:32.118Z,38.47
2023-02-23T19:02:00.870Z,56.77
2023-02-23T19:04:29.820Z,75.90
2023-02-23T19:06:58.907Z,77.33
2023-02-23T19:09:29.331Z,74.80
2023-02-23T19:11:58.258Z,74.67
2023-02-23T19:14:47.811Z,91.00
2023-02-23T19:17:16.078Z,56.67
2023-02-23T19:19:45.421Z,43.40
2023-02-23T19:22:14.024Z,38.87
2023-02-23T19:24:44.214Z,36.90
2023-02-23T19:27:12.666Z,40.00
2023-02-23T19:29:41.370Z,43.37
2023-02-23T19:32:10.206Z,44.10
2023-02-23T19:34:40.045Z,41.13
2023-02-23T19:37:09.106Z,37.23
2023-02-23T19:39:38.400Z,37.30
2023-02-23T19:42:09.245Z,37.23
2023-02-23T19:44:38.191Z,38.83
2023-02-23T19:47:07.691Z,45.50
2023-02-23T19:49:36.776Z,48.90
2023-02-23T19:52:06.931Z,43.37
2023-02-23T19:54:38.014Z,38.47
2023-02-23T19:57:09.934Z,39.13
2023-02-23T19:59:38.977Z,39.77
2023-02-23T20:02:07.991Z,39.37
2023-02-23T20:04:37.158Z,38.00
2023-02-23T20:07:05.998Z,40.77
2023-02-23T20:09:35.305Z,40.17
2023-02-23T20:12:04.261Z,41.10
2023-02-23T20:14:34.980Z,46.77
2023-02-23T20:17:05.494Z,40.87
2023-02-23T20:19:34.770Z,49.67
2023-02-23T20:22:03.648Z,51.30
2023-02-23T20:24:32.518Z,48.37
2023-02-23T20:27:01.378Z,44.60
2023-02-23T20:29:31.312Z,43.03
2023-02-23T20:32:02.976Z,43.37
2023-02-23T20:34:32.302Z,43.40
2023-02-23T20:37:00.935Z,48.93
2023-02-23T20:39:29.785Z,46.17
2023-02-23T20:41:58.423Z,45.27
2023-02-23T20:44:29.103Z,44.07
2023-02-23T20:46:58.008Z,43.97
2023-02-23T20:49:29.847Z,45.50
2023-02-23T20:51:58.578Z,43.63
2023-02-23T20:54:27.954Z,46.20
2023-02-23T20:57:07.452Z,45.57
2023-02-23T20:59:37.507Z,46.13
2023-02-23T21:02:08.151Z,50.53
2023-02-23T21:04:38.889Z,51.20
2023-02-23T21:07:07.509Z,45.10
2023-02-23T21:09:36.395Z,44.83
2023-02-23T21:12:05.049Z,44.17
2023-02-23T21:14:35.496Z,53.40
2023-02-23T21:17:05.344Z,45.57
2023-02-23T21:19:36.340Z,42.73
2023-02-23T21:22:06.486Z,45.70
2023-02-23T21:24:35.285Z,45.47
2023-02-23T21:27:05.250Z,44.80
2023-02-23T21:29:34.202Z,41.80
2023-02-23T21:32:02.847Z,43.20
2023-02-23T21:34:31.691Z,43.60
2023-02-23T21:37:00.582Z,42.63
2023-02-23T21:39:31.494Z,40.20
2023-02-23T21:42:00.410Z,41.13
2023-02-23T21:44:29.294Z,41.00
2023-02-23T21:46:58.445Z,39.87
2023-02-23T21:49:27.275Z,42.13
2023-02-23T21:51:55.751Z,43.53
2023-02-23T21:54:25.011Z,44.47
2023-02-23T21:56:55.504Z,42.70
2023-02-23T21:59:24.464Z,40.90
2023-02-23T22:01:53.028Z,40.77
2023-02-23T22:04:22.112Z,40.27
2023-02-23T22:06:50.586Z,43.30
2023-02-23T22:09:19.334Z,42.00
2023-02-23T22:11:48.912Z,37.20
2023-02-23T22:14:19.143Z,39.57
2023-02-23T22:16:49.644Z,39.17
2023-02-23T22:19:19.480Z,35.97
2023-02-23T22:21:48.903Z,35.53
2023-02-23T22:24:18.216Z,38.13
2023-02-23T22:26:50.577Z,40.80
2023-02-23T22:29:21.565Z,37.67
2023-02-23T22:31:50.615Z,34.27
2023-02-23T22:34:19.657Z,38.20
2023-02-23T22:36:48.443Z,34.83
2023-02-23T22:39:18.626Z,35.27
2023-02-23T22:41:48.071Z,36.73
2023-02-23T22:44:18.654Z,36.23
2023-02-23T22:46:49.541Z,36.60
2023-02-23T22:49:19.939Z,35.27
2023-02-23T22:51:50.425Z,38.23
2023-02-23T22:54:20.481Z,37.83
2023-02-23T22:56:49.150Z,35.23
2023-02-23T22:59:20.325Z,32.73
2023-02-23T23:01:50.562Z,32.50
2023-02-23T23:04:21.954Z,34.63
2023-02-23T23:06:50.641Z,33.17
2023-02-23T23:09:21.098Z,32.53
2023-02-23T23:11:51.094Z,33.50
2023-02-23T23:14:20.372Z,29.97
2023-02-23T23:16:51.059Z,31.40
2023-02-23T23:19:24.082Z,32.47
2023-02-23T23:21:55.661Z,31.93
2023-02-23T23:24:25.790Z,29.33
2023-02-23T23:27:00.375Z,33.03
2023-02-23T23:29:30.630Z,30.43
2023-02-23T23:32:01.580Z,28.43
2023-02-23T23:34:33.501Z,30.43
2023-02-23T23:37:02.759Z,31.13
2023-02-23T23:39:31.592Z,29.77
2023-02-23T23:42:01.749Z,29.73
2023-02-23T23:44:33.781Z,26.93
2023-02-23T23:47:05.413Z,29.90
2023-02-23T23:49:37.730Z,32.17
2023-02-23T23:52:07.086Z,30.83
2023-02-23T23:54:39.095Z,29.00
2023-02-23T23:57:11.352Z,26.33
2023-02-23T23:59:45.741Z,23.80
